Central, Indiana
Current Conditions -  °F | °C
As of 1:58 PM on Monday 20 Oct 2014 (Local Time) from KFTK Reporting Station
Broken Clouds Broken Clouds  
Wind Chill: 65°   Ceiling: 9000
Heat Index: 65°   Visibility: 10mi
Dew Point: 50°   Wind: 15mph
Humidity: 57%   Direction: 190°S
Pressure: 29.93"   Gusts: NA
Location:  38.1°N, 86.16°W
Report Text: KFTK 201758Z AUTO 19013KT 10SM BKN090 19/10 A2993 RMK AO2 SLP137 60008 T01860100 10186 20082
Loading
Personal Weather Stations






























Interactive Weather Map
Tropical Storm Tracking
New forecast layout! Learn more

10-Day Weather Forecast

Advertisements
Track Severe Weather on mobile